sensor_id;sensor_type;location;lat;lon;timestamp;temperature;humidity
24049;DHT22;12250;50.956;4.746;2023-02-26T00:02:23;-0.70;99.90
24049;DHT22;12250;50.956;4.746;2023-02-26T00:04:49;-0.70;99.90
24049;DHT22;12250;50.956;4.746;2023-02-26T00:07:15;-0.70;99.90
24049;DHT22;12250;50.956;4.746;2023-02-26T00:09:41;-0.70;99.90
24049;DHT22;12250;50.956;4.746;2023-02-26T00:12:09;-0.80;99.90
24049;DHT22;12250;50.956;4.746;2023-02-26T00:14:35;-0.80;99.90
24049;DHT22;12250;50.956;4.746;2023-02-26T00:17:33;-0.80;99.90
24049;DHT22;12250;50.956;4.746;2023-02-26T00:20:01;-0.90;99.90
24049;DHT22;12250;50.956;4.746;2023-02-26T00:22:28;-1.00;99.90
24049;DHT22;12250;50.956;4.746;2023-02-26T00:24:54;-1.00;99.90
24049;DHT22;12250;50.956;4.746;2023-02-26T00:27:20;-1.10;99.90
24049;DHT22;12250;50.956;4.746;2023-02-26T00:29:46;-1.10;99.90
24049;DHT22;12250;50.956;4.746;2023-02-26T00:32:12;-1.10;99.90
24049;DHT22;12250;50.956;4.746;2023-02-26T00:34:38;-1.10;99.90
24049;DHT22;12250;50.956;4.746;2023-02-26T00:37:22;-1.20;99.90
24049;DHT22;12250;50.956;4.746;2023-02-26T00:42:48;-1.30;99.90
24049;DHT22;12250;50.956;4.746;2023-02-26T00:45:14;-1.40;99.90
24049;DHT22;12250;50.956;4.746;2023-02-26T00:50:25;-1.40;99.90
24049;DHT22;12250;50.956;4.746;2023-02-26T00:55:25;-1.50;99.90
24049;DHT22;12250;50.956;4.746;2023-02-26T00:57:51;-1.50;99.90
24049;DHT22;12250;50.956;4.746;2023-02-26T01:00:17;-1.60;99.90
24049;DHT22;12250;50.956;4.746;2023-02-26T01:02:43;-1.60;99.90
24049;DHT22;12250;50.956;4.746;2023-02-26T01:05:10;-1.60;99.90
24049;DHT22;12250;50.956;4.746;2023-02-26T01:07:41;-1.60;99.90
24049;DHT22;12250;50.956;4.746;2023-02-26T01:10:09;-1.60;99.90
24049;DHT22;12250;50.956;4.746;2023-02-26T01:12:36;-1.70;99.90
24049;DHT22;12250;50.956;4.746;2023-02-26T01:15:03;-1.70;99.90
24049;DHT22;12250;50.956;4.746;2023-02-26T01:20:28;-1.60;99.90
24049;DHT22;12250;50.956;4.746;2023-02-26T01:23:14;-1.50;99.90
24049;DHT22;12250;50.956;4.746;2023-02-26T01:25:42;-1.50;99.90
24049;DHT22;12250;50.956;4.746;2023-02-26T01:28:10;-1.40;99.90
24049;DHT22;12250;50.956;4.746;2023-02-26T01:30:36;-1.40;99.90
24049;DHT22;12250;50.956;4.746;2023-02-26T01:35:53;-1.30;99.90
24049;DHT22;12250;50.956;4.746;2023-02-26T01:38:43;-1.30;99.90
24049;DHT22;12250;50.956;4.746;2023-02-26T01:49:22;-1.20;99.90
24049;DHT22;12250;50.956;4.746;2023-02-26T01:52:55;-1.10;99.90
24049;DHT22;12250;50.956;4.746;2023-02-26T01:54:52;-1.00;99.90
24049;DHT22;12250;50.956;4.746;2023-02-26T01:57:18;-0.80;99.90
24049;DHT22;12250;50.956;4.746;2023-02-26T01:59:48;-0.70;99.90
24049;DHT22;12250;50.956;4.746;2023-02-26T02:02:18;-0.60;99.90
24049;DHT22;12250;50.956;4.746;2023-02-26T02:04:45;-0.40;99.90
24049;DHT22;12250;50.956;4.746;2023-02-26T02:07:12;-0.20;99.90
24049;DHT22;12250;50.956;4.746;2023-02-26T02:09:38;0.00;99.90
24049;DHT22;12250;50.956;4.746;2023-02-26T02:12:34;0.10;99.90
24049;DHT22;12250;50.956;4.746;2023-02-26T02:15:20;0.20;99.90
24049;DHT22;12250;50.956;4.746;2023-02-26T02:23:52;0.30;99.90
24049;DHT22;12250;50.956;4.746;2023-02-26T02:26:40;0.40;99.90
24049;DHT22;12250;50.956;4.746;2023-02-26T02:32:00;0.20;99.90
24049;DHT22;12250;50.956;4.746;2023-02-26T02:34:48;0.00;99.90
24049;DHT22;12250;50.956;4.746;2023-02-26T02:37:21;0.00;99.90
24049;DHT22;12250;50.956;4.746;2023-02-26T02:39:59;-0.10;99.90
24049;DHT22;12250;50.956;4.746;2023-02-26T02:42:42;-0.30;99.90
24049;DHT22;12250;50.956;4.746;2023-02-26T02:45:33;-0.40;99.90
24049;DHT22;12250;50.956;4.746;2023-02-26T02:48:09;-0.50;99.90
24049;DHT22;12250;50.956;4.746;2023-02-26T02:50:41;-0.60;99.90
24049;DHT22;12250;50.956;4.746;2023-02-26T02:53:20;-0.60;99.90
24049;DHT22;12250;50.956;4.746;2023-02-26T02:56:09;-0.70;99.90
24049;DHT22;12250;50.956;4.746;2023-02-26T02:58:41;-0.80;99.90
24049;DHT22;12250;50.956;4.746;2023-02-26T03:01:11;-0.80;99.90
24049;DHT22;12250;50.956;4.746;2023-02-26T03:06:28;-0.90;99.90
24049;DHT22;12250;50.956;4.746;2023-02-26T03:08:54;-0.90;99.90
24049;DHT22;12250;50.956;4.746;2023-02-26T03:11:20;-1.00;99.90
24049;DHT22;12250;50.956;4.746;2023-02-26T03:13:47;-1.00;99.90
24049;DHT22;12250;50.956;4.746;2023-02-26T03:16:31;-1.00;99.90
24049;DHT22;12250;50.956;4.746;2023-02-26T03:19:29;-1.00;99.90
24049;DHT22;12250;50.956;4.746;2023-02-26T03:22:17;-1.10;99.90
24049;DHT22;12250;50.956;4.746;2023-02-26T03:25:23;-1.10;99.90
24049;DHT22;12250;50.956;4.746;2023-02-26T03:33:11;-1.20;99.90
24049;DHT22;12250;50.956;4.746;2023-02-26T03:36:13;-1.20;99.90
24049;DHT22;12250;50.956;4.746;2023-02-26T03:39:03;-1.20;99.90
24049;DHT22;12250;50.956;4.746;2023-02-26T03:41:44;-1.20;99.90
24049;DHT22;12250;50.956;4.746;2023-02-26T03:44:17;-1.20;99.90
24049;DHT22;12250;50.956;4.746;2023-02-26T03:46:48;-1.20;99.90
24049;DHT22;12250;50.956;4.746;2023-02-26T03:49:25;-1.20;99.90
24049;DHT22;12250;50.956;4.746;2023-02-26T03:51:51;-1.20;99.90
24049;DHT22;12250;50.956;4.746;2023-02-26T03:54:29;-1.20;99.90
24049;DHT22;12250;50.956;4.746;2023-02-26T03:56:56;-1.20;99.90
24049;DHT22;12250;50.956;4.746;2023-02-26T03:59:21;-1.20;99.90
24049;DHT22;12250;50.956;4.746;2023-02-26T04:01:53;-1.20;99.90
24049;DHT22;12250;50.956;4.746;2023-02-26T04:04:24;-1.20;99.90
24049;DHT22;12250;50.956;4.746;2023-02-26T04:06:51;-1.20;99.90
24049;DHT22;12250;50.956;4.746;2023-02-26T04:09:19;-1.20;99.90
24049;DHT22;12250;50.956;4.746;2023-02-26T04:11:46;-1.20;99.90
24049;DHT22;12250;50.956;4.746;2023-02-26T04:14:13;-1.20;99.90
24049;DHT22;12250;50.956;4.746;2023-02-26T04:16:38;-1.20;99.90
24049;DHT22;12250;50.956;4.746;2023-02-26T04:19:04;-1.10;99.90
24049;DHT22;12250;50.956;4.746;2023-02-26T04:21:30;-1.10;99.90
24049;DHT22;12250;50.956;4.746;2023-02-26T04:23:56;-1.10;99.90
24049;DHT22;12250;50.956;4.746;2023-02-26T04:26:21;-1.10;99.90
24049;DHT22;12250;50.956;4.746;2023-02-26T04:28:47;-1.00;99.90
24049;DHT22;12250;50.956;4.746;2023-02-26T04:31:13;-1.10;99.90
24049;DHT22;12250;50.956;4.746;2023-02-26T04:33:39;-1.00;99.90
24049;DHT22;12250;50.956;4.746;2023-02-26T04:36:05;-1.00;99.90
24049;DHT22;12250;50.956;4.746;2023-02-26T04:38:31;-1.00;99.90
24049;DHT22;12250;50.956;4.746;2023-02-26T04:40:57;-1.00;99.90
24049;DHT22;12250;50.956;4.746;2023-02-26T04:43:23;-1.00;99.90
24049;DHT22;12250;50.956;4.746;2023-02-26T04:45:48;-1.00;99.90
24049;DHT22;12250;50.956;4.746;2023-02-26T04:48:15;-0.90;99.90
24049;DHT22;12250;50.956;4.746;2023-02-26T04:50:41;-0.90;99.90
24049;DHT22;12250;50.956;4.746;2023-02-26T04:53:07;-0.90;99.90
24049;DHT22;12250;50.956;4.746;2023-02-26T04:55:34;-1.00;99.90
24049;DHT22;12250;50.956;4.746;2023-02-26T04:58:00;-0.90;99.90
24049;DHT22;12250;50.956;4.746;2023-02-26T05:00:25;-0.90;99.90
24049;DHT22;12250;50.956;4.746;2023-02-26T05:02:51;-0.90;99.90
24049;DHT22;12250;50.956;4.746;2023-02-26T05:05:17;-0.90;99.90
24049;DHT22;12250;50.956;4.746;2023-02-26T05:07:43;-0.80;99.90
24049;DHT22;12250;50.956;4.746;2023-02-26T05:10:09;-0.80;99.90
24049;DHT22;12250;50.956;4.746;2023-02-26T05:12:35;-0.70;99.90
24049;DHT22;12250;50.956;4.746;2023-02-26T05:15:02;-0.70;99.90
24049;DHT22;12250;50.956;4.746;2023-02-26T05:17:28;-0.70;99.90
24049;DHT22;12250;50.956;4.746;2023-02-26T05:19:53;-0.60;99.90
24049;DHT22;12250;50.956;4.746;2023-02-26T05:22:19;-0.70;99.90
24049;DHT22;12250;50.956;4.746;2023-02-26T05:24:45;-0.70;99.90
24049;DHT22;12250;50.956;4.746;2023-02-26T05:27:10;-0.70;99.90
24049;DHT22;12250;50.956;4.746;2023-02-26T05:29:36;-0.70;99.90
24049;DHT22;12250;50.956;4.746;2023-02-26T05:32:03;-0.70;99.90
24049;DHT22;12250;50.956;4.746;2023-02-26T05:34:28;-0.70;99.90
24049;DHT22;12250;50.956;4.746;2023-02-26T05:36:54;-0.80;99.90
24049;DHT22;12250;50.956;4.746;2023-02-26T05:39:20;-0.80;99.90
24049;DHT22;12250;50.956;4.746;2023-02-26T05:41:45;-0.70;99.90
24049;DHT22;12250;50.956;4.746;2023-02-26T05:44:11;-0.70;99.90
24049;DHT22;12250;50.956;4.746;2023-02-26T05:46:37;-0.70;99.90
24049;DHT22;12250;50.956;4.746;2023-02-26T05:49:03;-0.70;99.90
24049;DHT22;12250;50.956;4.746;2023-02-26T05:51:29;-0.70;99.90
24049;DHT22;12250;50.956;4.746;2023-02-26T05:53:55;-0.70;99.90
24049;DHT22;12250;50.956;4.746;2023-02-26T05:56:20;-0.80;99.90
24049;DHT22;12250;50.956;4.746;2023-02-26T05:58:46;-0.80;99.90
24049;DHT22;12250;50.956;4.746;2023-02-26T06:01:12;-0.70;99.90
24049;DHT22;12250;50.956;4.746;2023-02-26T06:03:38;-0.70;99.90
24049;DHT22;12250;50.956;4.746;2023-02-26T06:06:09;-0.70;99.90
24049;DHT22;12250;50.956;4.746;2023-02-26T06:08:35;-0.80;99.90
24049;DHT22;12250;50.956;4.746;2023-02-26T06:11:00;-0.80;99.90
24049;DHT22;12250;50.956;4.746;2023-02-26T06:13:26;-0.90;99.90
24049;DHT22;12250;50.956;4.746;2023-02-26T06:15:52;-0.80;99.90
24049;DHT22;12250;50.956;4.746;2023-02-26T06:18:18;-0.80;99.90
24049;DHT22;12250;50.956;4.746;2023-02-26T06:20:43;-0.90;99.90
24049;DHT22;12250;50.956;4.746;2023-02-26T06:23:09;-0.90;99.90
24049;DHT22;12250;50.956;4.746;2023-02-26T06:25:35;-0.90;99.90
24049;DHT22;12250;50.956;4.746;2023-02-26T06:28:01;-1.00;99.90
24049;DHT22;12250;50.956;4.746;2023-02-26T06:30:26;-1.00;99.90
24049;DHT22;12250;50.956;4.746;2023-02-26T06:32:52;-1.00;99.90
24049;DHT22;12250;50.956;4.746;2023-02-26T06:35:18;-1.00;99.90
24049;DHT22;12250;50.956;4.746;2023-02-26T06:37:43;-1.00;99.90
24049;DHT22;12250;50.956;4.746;2023-02-26T06:40:09;-0.90;99.90
24049;DHT22;12250;50.956;4.746;2023-02-26T06:42:36;-0.90;99.90
24049;DHT22;12250;50.956;4.746;2023-02-26T06:45:02;-0.90;99.90
24049;DHT22;12250;50.956;4.746;2023-02-26T06:47:28;-0.90;99.90
24049;DHT22;12250;50.956;4.746;2023-02-26T06:49:54;-0.90;99.90
24049;DHT22;12250;50.956;4.746;2023-02-26T06:52:19;-0.80;99.90
24049;DHT22;12250;50.956;4.746;2023-02-26T06:54:45;-0.80;99.90
24049;DHT22;12250;50.956;4.746;2023-02-26T06:57:11;-0.80;99.90
24049;DHT22;12250;50.956;4.746;2023-02-26T06:59:37;-0.70;99.90
24049;DHT22;12250;50.956;4.746;2023-02-26T07:02:03;-0.70;99.90
24049;DHT22;12250;50.956;4.746;2023-02-26T07:04:28;-0.70;99.90
24049;DHT22;12250;50.956;4.746;2023-02-26T07:06:54;-0.70;99.90
24049;DHT22;12250;50.956;4.746;2023-02-26T07:09:19;-0.70;99.90
24049;DHT22;12250;50.956;4.746;2023-02-26T07:11:45;-0.60;99.90
24049;DHT22;12250;50.956;4.746;2023-02-26T07:14:11;-0.60;99.90
24049;DHT22;12250;50.956;4.746;2023-02-26T07:16:36;-0.50;99.90
24049;DHT22;12250;50.956;4.746;2023-02-26T07:19:02;-0.50;99.90
24049;DHT22;12250;50.956;4.746;2023-02-26T07:21:28;-0.40;99.90
24049;DHT22;12250;50.956;4.746;2023-02-26T07:23:53;-0.40;99.90
24049;DHT22;12250;50.956;4.746;2023-02-26T07:26:19;-0.30;99.90
24049;DHT22;12250;50.956;4.746;2023-02-26T07:28:45;-0.20;99.90
24049;DHT22;12250;50.956;4.746;2023-02-26T07:31:10;-0.10;99.90
24049;DHT22;12250;50.956;4.746;2023-02-26T07:33:36;0.00;99.90
24049;DHT22;12250;50.956;4.746;2023-02-26T07:36:04;0.30;99.90
24049;DHT22;12250;50.956;4.746;2023-02-26T07:38:30;0.80;99.90
24049;DHT22;12250;50.956;4.746;2023-02-26T07:40:56;2.00;99.90
24049;DHT22;12250;50.956;4.746;2023-02-26T07:43:22;3.50;99.90
24049;DHT22;12250;50.956;4.746;2023-02-26T07:45:52;4.90;99.90
24049;DHT22;12250;50.956;4.746;2023-02-26T07:48:18;6.10;99.90
24049;DHT22;12250;50.956;4.746;2023-02-26T07:50:44;7.20;99.30
24049;DHT22;12250;50.956;4.746;2023-02-26T07:53:10;7.60;96.40
24049;DHT22;12250;50.956;4.746;2023-02-26T07:55:36;8.10;94.60
24049;DHT22;12250;50.956;4.746;2023-02-26T07:58:02;8.00;93.40
24049;DHT22;12250;50.956;4.746;2023-02-26T08:00:27;8.30;92.50
24049;DHT22;12250;50.956;4.746;2023-02-26T08:02:53;8.60;90.70
24049;DHT22;12250;50.956;4.746;2023-02-26T08:05:19;10.00;89.90
24049;DHT22;12250;50.956;4.746;2023-02-26T08:07:44;11.50;82.30
24049;DHT22;12250;50.956;4.746;2023-02-26T08:10:11;13.30;76.80
24049;DHT22;12250;50.956;4.746;2023-02-26T08:12:36;14.00;67.90
24049;DHT22;12250;50.956;4.746;2023-02-26T08:15:03;14.50;63.60
24049;DHT22;12250;50.956;4.746;2023-02-26T08:17:29;13.80;61.40
24049;DHT22;12250;50.956;4.746;2023-02-26T08:19:55;13.50;60.80
24049;DHT22;12250;50.956;4.746;2023-02-26T08:22:21;13.20;62.20
24049;DHT22;12250;50.956;4.746;2023-02-26T08:24:48;13.20;61.60
24049;DHT22;12250;50.956;4.746;2023-02-26T08:27:15;13.40;61.30
24049;DHT22;12250;50.956;4.746;2023-02-26T08:29:40;13.50;60.80
24049;DHT22;12250;50.956;4.746;2023-02-26T08:32:07;13.00;61.10
24049;DHT22;12250;50.956;4.746;2023-02-26T08:34:33;13.50;61.80
24049;DHT22;12250;50.956;4.746;2023-02-26T08:36:59;14.70;58.60
24049;DHT22;12250;50.956;4.746;2023-02-26T08:39:25;15.50;55.60
24049;DHT22;12250;50.956;4.746;2023-02-26T08:41:50;15.00;54.40
24049;DHT22;12250;50.956;4.746;2023-02-26T08:44:16;13.70;56.30
24049;DHT22;12250;50.956;4.746;2023-02-26T08:46:41;13.30;57.20
24049;DHT22;12250;50.956;4.746;2023-02-26T08:49:07;12.70;59.30
24049;DHT22;12250;50.956;4.746;2023-02-26T08:51:33;13.00;58.90
24049;DHT22;12250;50.956;4.746;2023-02-26T08:53:59;12.80;58.50
24049;DHT22;12250;50.956;4.746;2023-02-26T08:56:24;12.40;59.30
24049;DHT22;12250;50.956;4.746;2023-02-26T08:58:50;10.40;63.40
24049;DHT22;12250;50.956;4.746;2023-02-26T09:01:16;10.30;65.40
24049;DHT22;12250;50.956;4.746;2023-02-26T09:03:41;11.10;63.90
24049;DHT22;12250;50.956;4.746;2023-02-26T09:06:07;12.00;63.30
24049;DHT22;12250;50.956;4.746;2023-02-26T09:08:34;11.30;62.30
24049;DHT22;12250;50.956;4.746;2023-02-26T09:11:01;11.10;62.60
24049;DHT22;12250;50.956;4.746;2023-02-26T09:13:27;11.00;64.00
24049;DHT22;12250;50.956;4.746;2023-02-26T09:15:53;10.70;64.50
24049;DHT22;12250;50.956;4.746;2023-02-26T09:18:19;10.60;66.00
24049;DHT22;12250;50.956;4.746;2023-02-26T09:20:44;10.30;67.50
24049;DHT22;12250;50.956;4.746;2023-02-26T09:23:11;11.40;65.00
24049;DHT22;12250;50.956;4.746;2023-02-26T09:25:37;12.70;61.50
24049;DHT22;12250;50.956;4.746;2023-02-26T09:28:03;12.40;59.80
24049;DHT22;12250;50.956;4.746;2023-02-26T09:30:30;11.80;60.90
24049;DHT22;12250;50.956;4.746;2023-02-26T09:32:56;12.20;61.00
24049;DHT22;12250;50.956;4.746;2023-02-26T09:35:22;12.50;60.00
24049;DHT22;12250;50.956;4.746;2023-02-26T09:37:47;12.00;59.30
24049;DHT22;12250;50.956;4.746;2023-02-26T09:40:36;10.80;62.70
24049;DHT22;12250;50.956;4.746;2023-02-26T09:45:49;8.80;67.30
24049;DHT22;12250;50.956;4.746;2023-02-26T09:48:17;8.30;69.90
24049;DHT22;12250;50.956;4.746;2023-02-26T09:50:55;8.90;71.00
24049;DHT22;12250;50.956;4.746;2023-02-26T09:53:30;8.50;70.40
24049;DHT22;12250;50.956;4.746;2023-02-26T09:56:17;9.00;71.10
24049;DHT22;12250;50.956;4.746;2023-02-26T09:58:45;9.30;65.90
24049;DHT22;12250;50.956;4.746;2023-02-26T10:04:36;9.60;66.80
24049;DHT22;12250;50.956;4.746;2023-02-26T10:07:28;10.70;65.80
24049;DHT22;12250;50.956;4.746;2023-02-26T10:10:21;9.30;61.50
24049;DHT22;12250;50.956;4.746;2023-02-26T10:12:51;8.00;67.10
24049;DHT22;12250;50.956;4.746;2023-02-26T10:15:37;7.30;69.50
24049;DHT22;12250;50.956;4.746;2023-02-26T10:18:15;8.30;70.50
24049;DHT22;12250;50.956;4.746;2023-02-26T10:20:57;9.20;66.40
24049;DHT22;12250;50.956;4.746;2023-02-26T10:23:43;9.40;64.00
24049;DHT22;12250;50.956;4.746;2023-02-26T10:36:48;8.40;65.30
24049;DHT22;12250;50.956;4.746;2023-02-26T10:39:32;9.10;63.00
24049;DHT22;12250;50.956;4.746;2023-02-26T10:42:03;8.30;62.70
24049;DHT22;12250;50.956;4.746;2023-02-26T10:44:56;7.80;67.40
24049;DHT22;12250;50.956;4.746;2023-02-26T10:47:29;7.70;69.60
24049;DHT22;12250;50.956;4.746;2023-02-26T10:50:10;8.30;67.40
24049;DHT22;12250;50.956;4.746;2023-02-26T10:52:37;8.60;66.00
24049;DHT22;12250;50.956;4.746;2023-02-26T11:00:32;8.80;63.60
24049;DHT22;12250;50.956;4.746;2023-02-26T11:03:00;8.30;61.80
24049;DHT22;12250;50.956;4.746;2023-02-26T11:05:29;8.50;64.60
24049;DHT22;12250;50.956;4.746;2023-02-26T11:07:57;8.90;60.70
24049;DHT22;12250;50.956;4.746;2023-02-26T11:10:30;8.50;60.50
24049;DHT22;12250;50.956;4.746;2023-02-26T11:13:00;8.30;65.10
24049;DHT22;12250;50.956;4.746;2023-02-26T11:15:26;8.00;62.10
24049;DHT22;12250;50.956;4.746;2023-02-26T11:17:56;7.70;66.40
24049;DHT22;12250;50.956;4.746;2023-02-26T11:20:34;7.60;67.00
24049;DHT22;12250;50.956;4.746;2023-02-26T11:23:03;6.90;65.80
24049;DHT22;12250;50.956;4.746;2023-02-26T11:25:32;6.50;67.50
24049;DHT22;12250;50.956;4.746;2023-02-26T11:28:02;6.40;68.60
24049;DHT22;12250;50.956;4.746;2023-02-26T11:30:32;6.10;69.70
24049;DHT22;12250;50.956;4.746;2023-02-26T11:33:15;6.10;70.90
24049;DHT22;12250;50.956;4.746;2023-02-26T11:35:41;6.20;72.50
24049;DHT22;12250;50.956;4.746;2023-02-26T11:38:13;6.60;71.80
24049;DHT22;12250;50.956;4.746;2023-02-26T11:40:41;6.80;71.00
24049;DHT22;12250;50.956;4.746;2023-02-26T11:43:11;6.90;71.50
24049;DHT22;12250;50.956;4.746;2023-02-26T11:45:42;6.70;69.00
24049;DHT22;12250;50.956;4.746;2023-02-26T11:48:13;6.40;71.60
24049;DHT22;12250;50.956;4.746;2023-02-26T11:50:46;6.70;72.50
24049;DHT22;12250;50.956;4.746;2023-02-26T11:53:36;6.80;70.40
24049;DHT22;12250;50.956;4.746;2023-02-26T11:56:12;6.60;72.00
24049;DHT22;12250;50.956;4.746;2023-02-26T11:58:41;6.80;72.70
24049;DHT22;12250;50.956;4.746;2023-02-26T12:01:10;6.80;72.10
24049;DHT22;12250;50.956;4.746;2023-02-26T12:03:38;6.70;69.90
24049;DHT22;12250;50.956;4.746;2023-02-26T12:06:06;6.60;69.80
24049;DHT22;12250;50.956;4.746;2023-02-26T12:08:34;6.90;72.10
24049;DHT22;12250;50.956;4.746;2023-02-26T12:11:31;7.20;70.90
24049;DHT22;12250;50.956;4.746;2023-02-26T12:14:12;7.60;70.80
24049;DHT22;12250;50.956;4.746;2023-02-26T12:25:17;7.90;69.20
24049;DHT22;12250;50.956;4.746;2023-02-26T12:41:40;6.70;70.50
24049;DHT22;12250;50.956;4.746;2023-02-26T12:47:19;7.30;67.60
24049;DHT22;12250;50.956;4.746;2023-02-26T12:50:15;7.20;68.30
24049;DHT22;12250;50.956;4.746;2023-02-26T13:08:45;6.40;72.50
24049;DHT22;12250;50.956;4.746;2023-02-26T13:19:21;5.90;72.90
24049;DHT22;12250;50.956;4.746;2023-02-26T13:21:55;5.60;72.90
24049;DHT22;12250;50.956;4.746;2023-02-26T13:24:33;5.80;74.60
24049;DHT22;12250;50.956;4.746;2023-02-26T13:27:00;6.00;72.50
24049;DHT22;12250;50.956;4.746;2023-02-26T13:29:34;6.10;70.30
24049;DHT22;12250;50.956;4.746;2023-02-26T13:32:11;5.70;69.30
24049;DHT22;12250;50.956;4.746;2023-02-26T13:34:49;5.70;70.50
24049;DHT22;12250;50.956;4.746;2023-02-26T13:40:45;5.90;72.00
24049;DHT22;12250;50.956;4.746;2023-02-26T13:43:23;6.20;73.00
24049;DHT22;12250;50.956;4.746;2023-02-26T13:47:11;6.40;71.60
24049;DHT22;12250;50.956;4.746;2023-02-26T13:49:25;6.50;68.50
24049;DHT22;12250;50.956;4.746;2023-02-26T13:51:54;6.40;67.10
24049;DHT22;12250;50.956;4.746;2023-02-26T13:59:36;6.40;68.30
24049;DHT22;12250;50.956;4.746;2023-02-26T14:04:57;6.30;68.60
24049;DHT22;12250;50.956;4.746;2023-02-26T14:07:52;6.10;65.20
24049;DHT22;12250;50.956;4.746;2023-02-26T14:10:28;6.00;65.50
24049;DHT22;12250;50.956;4.746;2023-02-26T14:13:23;6.10;66.10
24049;DHT22;12250;50.956;4.746;2023-02-26T14:15:59;6.20;66.30
24049;DHT22;12250;50.956;4.746;2023-02-26T14:18:29;6.20;66.00
24049;DHT22;12250;50.956;4.746;2023-02-26T14:23:54;6.20;65.40
24049;DHT22;12250;50.956;4.746;2023-02-26T14:26:22;6.40;66.60
24049;DHT22;12250;50.956;4.746;2023-02-26T14:32:10;6.30;67.90
24049;DHT22;12250;50.956;4.746;2023-02-26T14:34:47;6.20;65.30
24049;DHT22;12250;50.956;4.746;2023-02-26T14:37:19;6.10;65.10
24049;DHT22;12250;50.956;4.746;2023-02-26T14:39:56;6.10;65.40
24049;DHT22;12250;50.956;4.746;2023-02-26T14:42:33;6.10;65.60
24049;DHT22;12250;50.956;4.746;2023-02-26T14:45:31;6.20;65.60
24049;DHT22;12250;50.956;4.746;2023-02-26T14:47:59;5.90;64.30
24049;DHT22;12250;50.956;4.746;2023-02-26T14:50:32;6.00;65.10
24049;DHT22;12250;50.956;4.746;2023-02-26T15:25:56;5.80;68.60
24049;DHT22;12250;50.956;4.746;2023-02-26T15:28:28;5.80;69.20
24049;DHT22;12250;50.956;4.746;2023-02-26T15:30:55;5.80;70.70
24049;DHT22;12250;50.956;4.746;2023-02-26T15:33:24;5.90;70.80
24049;DHT22;12250;50.956;4.746;2023-02-26T15:35:51;5.90;69.30
24049;DHT22;12250;50.956;4.746;2023-02-26T15:38:18;5.90;68.90
24049;DHT22;12250;50.956;4.746;2023-02-26T15:40:44;5.80;70.30
24049;DHT22;12250;50.956;4.746;2023-02-26T15:43:15;5.70;70.50
24049;DHT22;12250;50.956;4.746;2023-02-26T15:45:42;5.60;71.10
24049;DHT22;12250;50.956;4.746;2023-02-26T15:48:14;5.60;71.50
24049;DHT22;12250;50.956;4.746;2023-02-26T15:50:43;5.70;71.50
24049;DHT22;12250;50.956;4.746;2023-02-26T15:53:18;5.70;71.60
24049;DHT22;12250;50.956;4.746;2023-02-26T15:55:52;5.80;71.90
24049;DHT22;12250;50.956;4.746;2023-02-26T15:58:37;5.80;71.50
24049;DHT22;12250;50.956;4.746;2023-02-26T16:01:04;5.70;70.80
24049;DHT22;12250;50.956;4.746;2023-02-26T16:03:33;5.60;71.90
24049;DHT22;12250;50.956;4.746;2023-02-26T16:05:59;5.70;72.70
24049;DHT22;12250;50.956;4.746;2023-02-26T16:08:25;5.70;72.10
24049;DHT22;12250;50.956;4.746;2023-02-26T16:10:53;5.70;72.80
24049;DHT22;12250;50.956;4.746;2023-02-26T16:13:32;5.70;72.30
24049;DHT22;12250;50.956;4.746;2023-02-26T16:16:04;5.60;72.90
24049;DHT22;12250;50.956;4.746;2023-02-26T16:18:33;5.70;73.50
24049;DHT22;12250;50.956;4.746;2023-02-26T16:21:00;5.60;72.70
24049;DHT22;12250;50.956;4.746;2023-02-26T16:23:47;5.50;73.40
24049;DHT22;12250;50.956;4.746;2023-02-26T16:26:46;5.60;74.50
24049;DHT22;12250;50.956;4.746;2023-02-26T16:29:16;5.50;74.10
24049;DHT22;12250;50.956;4.746;2023-02-26T16:31:46;5.40;74.00
24049;DHT22;12250;50.956;4.746;2023-02-26T16:36:55;5.20;74.50
24049;DHT22;12250;50.956;4.746;2023-02-26T16:39:25;5.20;74.60
24049;DHT22;12250;50.956;4.746;2023-02-26T16:44:50;5.00;74.80
24049;DHT22;12250;50.956;4.746;2023-02-26T16:47:17;4.90;75.40
24049;DHT22;12250;50.956;4.746;2023-02-26T16:49:43;4.90;75.60
24049;DHT22;12250;50.956;4.746;2023-02-26T16:52:15;4.90;75.80
24049;DHT22;12250;50.956;4.746;2023-02-26T16:54:42;4.80;76.50
24049;DHT22;12250;50.956;4.746;2023-02-26T16:57:19;4.90;77.20
24049;DHT22;12250;50.956;4.746;2023-02-26T16:59:55;4.80;77.10
24049;DHT22;12250;50.956;4.746;2023-02-26T17:02:24;4.70;77.10
24049;DHT22;12250;50.956;4.746;2023-02-26T17:04:53;4.70;77.90
24049;DHT22;12250;50.956;4.746;2023-02-26T17:07:28;4.60;78.70
24049;DHT22;12250;50.956;4.746;2023-02-26T17:10:45;4.50;79.00
24049;DHT22;12250;50.956;4.746;2023-02-26T17:12:50;4.40;79.30
24049;DHT22;12250;50.956;4.746;2023-02-26T17:15:34;4.30;80.10
24049;DHT22;12250;50.956;4.746;2023-02-26T17:18:00;4.20;80.50
24049;DHT22;12250;50.956;4.746;2023-02-26T17:20:27;4.10;81.20
24049;DHT22;12250;50.956;4.746;2023-02-26T17:22:54;4.10;81.10
24049;DHT22;12250;50.956;4.746;2023-02-26T17:25:21;4.00;81.70
24049;DHT22;12250;50.956;4.746;2023-02-26T17:27:50;4.00;82.10
24049;DHT22;12250;50.956;4.746;2023-02-26T17:30:18;3.90;82.30
24049;DHT22;12250;50.956;4.746;2023-02-26T17:32:45;3.80;82.70
24049;DHT22;12250;50.956;4.746;2023-02-26T17:35:14;3.90;83.40
24049;DHT22;12250;50.956;4.746;2023-02-26T17:37:41;3.80;83.50
24049;DHT22;12250;50.956;4.746;2023-02-26T17:40:21;3.70;83.50
24049;DHT22;12250;50.956;4.746;2023-02-26T17:42:48;3.60;83.90
24049;DHT22;12250;50.956;4.746;2023-02-26T17:45:14;3.60;84.00
24049;DHT22;12250;50.956;4.746;2023-02-26T17:47:40;3.50;84.30
24049;DHT22;12250;50.956;4.746;2023-02-26T17:52:55;3.40;85.40
24049;DHT22;12250;50.956;4.746;2023-02-26T17:55:21;3.30;86.10
24049;DHT22;12250;50.956;4.746;2023-02-26T17:57:46;3.30;86.50
24049;DHT22;12250;50.956;4.746;2023-02-26T18:00:14;3.30;86.70
24049;DHT22;12250;50.956;4.746;2023-02-26T18:02:40;3.20;87.10
24049;DHT22;12250;50.956;4.746;2023-02-26T18:05:07;3.20;87.30
24049;DHT22;12250;50.956;4.746;2023-02-26T18:07:32;3.10;87.40
24049;DHT22;12250;50.956;4.746;2023-02-26T18:09:58;3.10;88.00
24049;DHT22;12250;50.956;4.746;2023-02-26T18:12:24;3.10;88.80
24049;DHT22;12250;50.956;4.746;2023-02-26T18:14:50;3.00;88.30
24049;DHT22;12250;50.956;4.746;2023-02-26T18:17:27;2.90;89.00
24049;DHT22;12250;50.956;4.746;2023-02-26T18:19:55;2.80;89.40
24049;DHT22;12250;50.956;4.746;2023-02-26T18:22:22;2.70;90.00
24049;DHT22;12250;50.956;4.746;2023-02-26T18:24:55;2.50;90.30
24049;DHT22;12250;50.956;4.746;2023-02-26T18:27:23;2.40;91.00
24049;DHT22;12250;50.956;4.746;2023-02-26T18:29:49;2.30;91.80
24049;DHT22;12250;50.956;4.746;2023-02-26T18:32:21;2.30;92.10
24049;DHT22;12250;50.956;4.746;2023-02-26T18:34:48;2.30;92.50
24049;DHT22;12250;50.956;4.746;2023-02-26T18:37:18;2.20;92.60
24049;DHT22;12250;50.956;4.746;2023-02-26T18:39:44;2.10;93.10
24049;DHT22;12250;50.956;4.746;2023-02-26T18:42:28;2.10;94.00
24049;DHT22;12250;50.956;4.746;2023-02-26T18:44:54;2.00;94.00
24049;DHT22;12250;50.956;4.746;2023-02-26T18:47:21;1.90;94.30
24049;DHT22;12250;50.956;4.746;2023-02-26T18:49:48;1.90;94.30